sensor_id;sensor_type;location;lat;lon;timestamp;pressure;altitude;pressure_sealevel;temperature;humidity
9676;BME280;4876;42.656;23.292;2022-12-29T00:00:13;95238.72;;;5.62;88.05
9676;BME280;4876;42.656;23.292;2022-12-29T00:02:40;95230.91;;;5.62;87.99
9676;BME280;4876;42.656;23.292;2022-12-29T00:05:08;95228.31;;;5.67;87.80
9676;BME280;4876;42.656;23.292;2022-12-29T00:07:35;95238.75;;;5.67;88.30
9676;BME280;4876;42.656;23.292;2022-12-29T00:10:03;95230.34;;;5.55;88.92
9676;BME280;4876;42.656;23.292;2022-12-29T00:12:30;95242.34;;;5.56;89.43
9676;BME280;4876;42.656;23.292;2022-12-29T00:15:16;95248.66;;;5.70;88.41
9676;BME280;4876;42.656;23.292;2022-12-29T00:18:00;95241.63;;;5.65;88.42
9676;BME280;4876;42.656;23.292;2022-12-29T00:20:28;95236.59;;;5.49;88.84
9676;BME280;4876;42.656;23.292;2022-12-29T00:23:13;95245.78;;;5.61;88.99
9676;BME280;4876;42.656;23.292;2022-12-29T00:25:57;95247.63;;;5.71;87.06
9676;BME280;4876;42.656;23.292;2022-12-29T00:28:41;95251.72;;;5.52;88.73
9676;BME280;4876;42.656;23.292;2022-12-29T00:31:25;95252.59;;;5.67;88.09
9676;BME280;4876;42.656;23.292;2022-12-29T00:34:10;95247.06;;;5.59;88.16
9676;BME280;4876;42.656;23.292;2022-12-29T00:36:56;95252.28;;;5.54;89.52
9676;BME280;4876;42.656;23.292;2022-12-29T00:39:23;95262.16;;;5.52;89.10
9676;BME280;4876;42.656;23.292;2022-12-29T00:42:08;95254.03;;;5.43;89.51
9676;BME280;4876;42.656;23.292;2022-12-29T00:44:58;95261.13;;;5.48;89.20
9676;BME280;4876;42.656;23.292;2022-12-29T00:47:24;95262.41;;;5.50;89.59
9676;BME280;4876;42.656;23.292;2022-12-29T00:49:51;95269.53;;;5.70;87.98
9676;BME280;4876;42.656;23.292;2022-12-29T00:52:18;95267.94;;;5.59;88.15
9676;BME280;4876;42.656;23.292;2022-12-29T00:54:45;95265.34;;;5.64;89.08
9676;BME280;4876;42.656;23.292;2022-12-29T00:57:12;95270.06;;;5.67;88.52
9676;BME280;4876;42.656;23.292;2022-12-29T00:59:40;95269.50;;;5.65;88.75
9676;BME280;4876;42.656;23.292;2022-12-29T01:02:08;95260.41;;;5.67;89.25
9676;BME280;4876;42.656;23.292;2022-12-29T01:04:35;95252.78;;;5.56;89.60
9676;BME280;4876;42.656;23.292;2022-12-29T01:07:02;95256.06;;;5.31;90.15
9676;BME280;4876;42.656;23.292;2022-12-29T01:09:31;95255.78;;;5.27;91.87
9676;BME280;4876;42.656;23.292;2022-12-29T01:12:15;95260.00;;;5.38;91.28
9676;BME280;4876;42.656;23.292;2022-12-29T01:14:41;95260.34;;;5.52;90.91
9676;BME280;4876;42.656;23.292;2022-12-29T01:17:08;95258.00;;;5.56;89.88
9676;BME280;4876;42.656;23.292;2022-12-29T01:19:35;95235.81;;;5.48;89.25
9676;BME280;4876;42.656;23.292;2022-12-29T01:22:02;95248.66;;;5.60;88.95
9676;BME280;4876;42.656;23.292;2022-12-29T01:24:30;95245.81;;;5.66;88.45
9676;BME280;4876;42.656;23.292;2022-12-29T01:26:57;95254.38;;;5.62;88.92
9676;BME280;4876;42.656;23.292;2022-12-29T01:29:23;95245.50;;;5.58;88.64
9676;BME280;4876;42.656;23.292;2022-12-29T01:31:50;95250.13;;;5.46;89.23
9676;BME280;4876;42.656;23.292;2022-12-29T01:34:17;95241.25;;;5.42;90.08
9676;BME280;4876;42.656;23.292;2022-12-29T01:36:44;95237.63;;;5.48;89.80
9676;BME280;4876;42.656;23.292;2022-12-29T01:39:11;95232.66;;;5.41;89.23
9676;BME280;4876;42.656;23.292;2022-12-29T01:41:39;95226.41;;;5.42;89.48
9676;BME280;4876;42.656;23.292;2022-12-29T01:44:47;95229.81;;;5.48;89.20
9676;BME280;4876;42.656;23.292;2022-12-29T01:47:19;95229.28;;;5.51;88.97
9676;BME280;4876;42.656;23.292;2022-12-29T01:49:47;95229.28;;;5.51;88.85
9676;BME280;4876;42.656;23.292;2022-12-29T01:52:14;95229.28;;;5.51;88.25
9676;BME280;4876;42.656;23.292;2022-12-29T01:54:43;95235.03;;;5.48;88.74
9676;BME280;4876;42.656;23.292;2022-12-29T01:57:17;95225.63;;;5.52;89.22
9676;BME280;4876;42.656;23.292;2022-12-29T01:59:51;95214.69;;;5.50;88.95
9676;BME280;4876;42.656;23.292;2022-12-29T02:02:19;95222.50;;;5.50;88.49
9676;BME280;4876;42.656;23.292;2022-12-29T02:04:46;95223.88;;;5.67;87.50
9676;BME280;4876;42.656;23.292;2022-12-29T02:07:17;95214.50;;;5.72;86.97
9676;BME280;4876;42.656;23.292;2022-12-29T02:09:46;95215.00;;;5.68;87.75
9676;BME280;4876;42.656;23.292;2022-12-29T02:12:15;95208.41;;;5.51;88.64
9676;BME280;4876;42.656;23.292;2022-12-29T02:14:43;95201.13;;;5.48;89.21
9676;BME280;4876;42.656;23.292;2022-12-29T02:17:16;95185.44;;;5.43;89.36
9676;BME280;4876;42.656;23.292;2022-12-29T02:20:15;95207.16;;;5.63;89.16
9676;BME280;4876;42.656;23.292;2022-12-29T02:22:55;95210.06;;;5.72;87.88
9676;BME280;4876;42.656;23.292;2022-12-29T02:25:58;95205.88;;;5.66;87.54
9676;BME280;4876;42.656;23.292;2022-12-29T02:28:53;95197.75;;;5.57;88.47
9676;BME280;4876;42.656;23.292;2022-12-29T02:31:31;95208.91;;;5.37;89.44
9676;BME280;4876;42.656;23.292;2022-12-29T02:34:06;95207.41;;;5.57;88.93
9676;BME280;4876;42.656;23.292;2022-12-29T02:36:41;95206.34;;;5.58;88.14
9676;BME280;4876;42.656;23.292;2022-12-29T02:39:16;95218.34;;;5.54;88.36
9676;BME280;4876;42.656;23.292;2022-12-29T02:41:56;95214.19;;;5.58;88.76
9676;BME280;4876;42.656;23.292;2022-12-29T02:44:29;95208.97;;;5.58;88.01
9676;BME280;4876;42.656;23.292;2022-12-29T02:47:04;95205.31;;;5.54;88.32
9676;BME280;4876;42.656;23.292;2022-12-29T02:49:38;95218.13;;;5.65;88.68
9676;BME280;4876;42.656;23.292;2022-12-29T02:52:10;95216.31;;;5.76;87.10
9676;BME280;4876;42.656;23.292;2022-12-29T02:54:39;95215.75;;;5.59;88.16
9676;BME280;4876;42.656;23.292;2022-12-29T02:57:11;95213.97;;;5.70;87.55
9676;BME280;4876;42.656;23.292;2022-12-29T02:59:39;95189.66;;;5.54;88.13
9676;BME280;4876;42.656;23.292;2022-12-29T03:02:28;95200.09;;;5.59;88.23
9676;BME280;4876;42.656;23.292;2022-12-29T03:05:18;95195.63;;;5.49;88.31
9676;BME280;4876;42.656;23.292;2022-12-29T03:07:54;95197.44;;;5.44;88.91
9676;BME280;4876;42.656;23.292;2022-12-29T03:10:33;95195.28;;;5.25;89.72
9676;BME280;4876;42.656;23.292;2022-12-29T03:13:06;95194.50;;;5.25;90.31
9676;BME280;4876;42.656;23.292;2022-12-29T03:15:58;95171.09;;;4.82;91.28
9676;BME280;4876;42.656;23.292;2022-12-29T03:18:44;95187.44;;;5.20;91.18
9676;BME280;4876;42.656;23.292;2022-12-29T03:21:17;95194.22;;;5.21;90.26
9676;BME280;4876;42.656;23.292;2022-12-29T03:23:46;95172.84;;;5.24;89.39
9676;BME280;4876;42.656;23.292;2022-12-29T03:26:17;95188.00;;;5.32;88.93
9676;BME280;4876;42.656;23.292;2022-12-29T03:28:50;95186.63;;;5.14;90.42
9676;BME280;4876;42.656;23.292;2022-12-29T03:31:19;95185.38;;;5.22;90.56
9676;BME280;4876;42.656;23.292;2022-12-29T03:33:50;95177.53;;;5.27;89.94
9676;BME280;4876;42.656;23.292;2022-12-29T03:36:25;95191.69;;;5.36;88.39
9676;BME280;4876;42.656;23.292;2022-12-29T03:38:58;95191.88;;;5.20;88.76
9676;BME280;4876;42.656;23.292;2022-12-29T03:41:30;95190.59;;;5.22;88.87
9676;BME280;4876;42.656;23.292;2022-12-29T03:43:58;95183.53;;;5.28;88.88
9676;BME280;4876;42.656;23.292;2022-12-29T03:46:24;95187.47;;;5.30;88.15
9676;BME280;4876;42.656;23.292;2022-12-29T03:48:53;95185.41;;;5.32;88.13
9676;BME280;4876;42.656;23.292;2022-12-29T03:51:19;95199.44;;;5.26;87.27
9676;BME280;4876;42.656;23.292;2022-12-29T03:53:46;95202.72;;;5.01;87.55
9676;BME280;4876;42.656;23.292;2022-12-29T03:56:13;95207.13;;;4.96;89.11
9676;BME280;4876;42.656;23.292;2022-12-29T03:58:40;95201.56;;;4.82;89.98
9676;BME280;4876;42.656;23.292;2022-12-29T04:01:06;95210.25;;;4.93;89.91
9676;BME280;4876;42.656;23.292;2022-12-29T04:03:33;95213.91;;;4.97;88.80
9676;BME280;4876;42.656;23.292;2022-12-29T04:06:02;95220.44;;;4.99;88.26
9676;BME280;4876;42.656;23.292;2022-12-29T04:08:28;95220.13;;;4.91;88.67
9676;BME280;4876;42.656;23.292;2022-12-29T04:10:55;95221.72;;;4.92;88.63
9676;BME280;4876;42.656;23.292;2022-12-29T04:13:22;95216.50;;;4.92;87.92
9676;BME280;4876;42.656;23.292;2022-12-29T04:15:49;95201.88;;;4.85;87.14
9676;BME280;4876;42.656;23.292;2022-12-29T04:18:15;95212.84;;;4.93;86.17
9676;BME280;4876;42.656;23.292;2022-12-29T04:20:44;95215.94;;;4.90;85.56
9676;BME280;4876;42.656;23.292;2022-12-29T04:23:27;95214.84;;;4.80;87.07
9676;BME280;4876;42.656;23.292;2022-12-29T04:25:54;95216.94;;;4.83;87.15
9676;BME280;4876;42.656;23.292;2022-12-29T04:28:21;95210.44;;;4.81;87.38
9676;BME280;4876;42.656;23.292;2022-12-29T04:30:48;95212.22;;;4.38;86.64
9676;BME280;4876;42.656;23.292;2022-12-29T04:33:15;95219.84;;;4.50;86.84
9676;BME280;4876;42.656;23.292;2022-12-29T04:35:42;95227.06;;;4.38;87.90
9676;BME280;4876;42.656;23.292;2022-12-29T04:38:09;95226.97;;;4.27;88.31
9676;BME280;4876;42.656;23.292;2022-12-29T04:40:38;95232.94;;;4.28;89.34
9676;BME280;4876;42.656;23.292;2022-12-29T04:43:05;95231.09;;;4.23;90.18
9676;BME280;4876;42.656;23.292;2022-12-29T04:45:31;95237.63;;;4.26;90.84
9676;BME280;4876;42.656;23.292;2022-12-29T04:47:58;95236.53;;;4.22;90.89
9676;BME280;4876;42.656;23.292;2022-12-29T04:50:25;95240.97;;;4.21;90.25
9676;BME280;4876;42.656;23.292;2022-12-29T04:52:52;95242.50;;;4.17;90.22
9676;BME280;4876;42.656;23.292;2022-12-29T04:55:18;95244.03;;;4.13;90.43
9676;BME280;4876;42.656;23.292;2022-12-29T04:57:47;95256.06;;;4.19;90.00
9676;BME280;4876;42.656;23.292;2022-12-29T05:00:14;95246.94;;;4.17;89.40
9676;BME280;4876;42.656;23.292;2022-12-29T05:02:41;95248.78;;;4.21;89.15
9676;BME280;4876;42.656;23.292;2022-12-29T05:05:08;95251.16;;;4.23;89.81
9676;BME280;4876;42.656;23.292;2022-12-29T05:07:35;95243.88;;;4.25;89.41
9676;BME280;4876;42.656;23.292;2022-12-29T05:10:02;95236.53;;;4.22;89.79
9676;BME280;4876;42.656;23.292;2022-12-29T05:12:30;95246.81;;;4.33;90.04
9676;BME280;4876;42.656;23.292;2022-12-29T05:14:59;95250.50;;;4.38;89.95
9676;BME280;4876;42.656;23.292;2022-12-29T05:17:28;95255.22;;;4.46;89.61
9676;BME280;4876;42.656;23.292;2022-12-29T05:19:55;95247.22;;;4.52;88.59
9676;BME280;4876;42.656;23.292;2022-12-29T05:22:22;95253.75;;;4.55;88.03
9676;BME280;4876;42.656;23.292;2022-12-29T05:24:49;95251.06;;;4.45;88.43
9676;BME280;4876;42.656;23.292;2022-12-29T05:27:15;95247.38;;;4.41;89.83
9676;BME280;4876;42.656;23.292;2022-12-29T05:29:42;95245.47;;;4.31;91.20
9676;BME280;4876;42.656;23.292;2022-12-29T05:32:10;95246.22;;;4.26;92.05
9676;BME280;4876;42.656;23.292;2022-12-29T05:34:37;95239.91;;;4.17;93.00
9676;BME280;4876;42.656;23.292;2022-12-29T05:37:04;95247.47;;;4.19;93.80
9676;BME280;4876;42.656;23.292;2022-12-29T05:39:31;95251.09;;;4.18;93.75
9676;BME280;4876;42.656;23.292;2022-12-29T05:41:57;95251.84;;;4.13;94.63
9676;BME280;4876;42.656;23.292;2022-12-29T05:44:24;95258.41;;;4.21;95.39
9676;BME280;4876;42.656;23.292;2022-12-29T05:46:51;95256.34;;;4.23;95.36
9676;BME280;4876;42.656;23.292;2022-12-29T05:49:19;95255.75;;;4.16;95.28
9676;BME280;4876;42.656;23.292;2022-12-29T05:51:46;95253.41;;;4.14;94.91
9676;BME280;4876;42.656;23.292;2022-12-29T05:54:13;95254.97;;;4.15;95.53
9676;BME280;4876;42.656;23.292;2022-12-29T05:56:39;95265.88;;;4.12;96.68
9676;BME280;4876;42.656;23.292;2022-12-29T05:59:06;95260.94;;;4.16;97.87
9676;BME280;4876;42.656;23.292;2022-12-29T06:01:33;95258.19;;;4.27;99.84
9676;BME280;4876;42.656;23.292;2022-12-29T06:04:00;95264.34;;;4.43;96.89
9676;BME280;4876;42.656;23.292;2022-12-29T06:06:28;95266.38;;;4.36;95.02
9676;BME280;4876;42.656;23.292;2022-12-29T06:08:55;95258.72;;;4.24;95.62
9676;BME280;4876;42.656;23.292;2022-12-29T06:11:22;95261.38;;;4.35;96.96
9676;BME280;4876;42.656;23.292;2022-12-29T06:13:48;95267.56;;;4.23;96.26
9676;BME280;4876;42.656;23.292;2022-12-29T06:16:15;95272.19;;;4.16;97.14
9676;BME280;4876;42.656;23.292;2022-12-29T06:18:44;95270.38;;;4.22;98.56
9676;BME280;4876;42.656;23.292;2022-12-29T06:21:10;95276.41;;;4.22;98.53
9676;BME280;4876;42.656;23.292;2022-12-29T06:23:38;95276.84;;;4.41;98.08
9676;BME280;4876;42.656;23.292;2022-12-29T06:26:05;95278.63;;;4.41;96.94
9676;BME280;4876;42.656;23.292;2022-12-29T06:28:32;95272.06;;;4.33;96.76
9676;BME280;4876;42.656;23.292;2022-12-29T06:30:59;95268.06;;;4.52;96.58
9676;BME280;4876;42.656;23.292;2022-12-29T06:33:28;95263.66;;;4.58;95.90
9676;BME280;4876;42.656;23.292;2022-12-29T06:35:55;95270.53;;;4.69;94.92
9676;BME280;4876;42.656;23.292;2022-12-29T06:38:21;95263.47;;;4.65;94.55
9676;BME280;4876;42.656;23.292;2022-12-29T06:40:49;95279.91;;;4.70;94.40
9676;BME280;4876;42.656;23.292;2022-12-29T06:43:16;95281.56;;;4.81;93.71
9676;BME280;4876;42.656;23.292;2022-12-29T06:45:43;95279.13;;;4.70;93.81
9676;BME280;4876;42.656;23.292;2022-12-29T06:48:10;95283.13;;;4.82;94.94
9676;BME280;4876;42.656;23.292;2022-12-29T06:50:36;95281.09;;;4.90;93.33
9676;BME280;4876;42.656;23.292;2022-12-29T06:53:03;95286.88;;;4.97;92.83
9676;BME280;4876;42.656;23.292;2022-12-29T06:55:30;95286.44;;;5.05;92.22
9676;BME280;4876;42.656;23.292;2022-12-29T06:57:59;95275.09;;;4.89;92.85
9676;BME280;4876;42.656;23.292;2022-12-29T07:00:26;95283.13;;;4.82;92.77
9676;BME280;4876;42.656;23.292;2022-12-29T07:02:54;95287.09;;;4.85;93.91
9676;BME280;4876;42.656;23.292;2022-12-29T07:05:21;95290.75;;;4.89;93.06
9676;BME280;4876;42.656;23.292;2022-12-29T07:07:48;95292.09;;;4.97;93.58
9676;BME280;4876;42.656;23.292;2022-12-29T07:10:15;95287.09;;;4.85;92.12
9676;BME280;4876;42.656;23.292;2022-12-29T07:12:41;95286.63;;;4.93;93.57
9676;BME280;4876;42.656;23.292;2022-12-29T07:15:10;95292.03;;;4.86;93.95
9676;BME280;4876;42.656;23.292;2022-12-29T07:17:37;95290.75;;;4.89;94.57
9676;BME280;4876;42.656;23.292;2022-12-29T07:20:05;95281.13;;;4.95;93.88
9676;BME280;4876;42.656;23.292;2022-12-29T07:22:32;95287.06;;;5.27;92.75
9676;BME280;4876;42.656;23.292;2022-12-29T07:24:59;95286.31;;;5.32;90.99
9676;BME280;4876;42.656;23.292;2022-12-29T07:27:25;95287.22;;;5.58;90.08
9676;BME280;4876;42.656;23.292;2022-12-29T07:29:52;95285.16;;;5.60;89.03
9676;BME280;4876;42.656;23.292;2022-12-29T07:32:20;95281.41;;;5.35;89.35
9676;BME280;4876;42.656;23.292;2022-12-29T07:34:47;95292.47;;;5.10;90.76
9676;BME280;4876;42.656;23.292;2022-12-29T07:37:14;95288.78;;;5.49;90.84
9676;BME280;4876;42.656;23.292;2022-12-29T07:39:41;95283.78;;;5.42;90.32
9676;BME280;4876;42.656;23.292;2022-12-29T07:42:08;95285.78;;;5.25;90.32
9676;BME280;4876;42.656;23.292;2022-12-29T07:44:35;95283.44;;;5.28;89.99
9676;BME280;4876;42.656;23.292;2022-12-29T07:47:02;95289.78;;;5.43;89.21
9676;BME280;4876;42.656;23.292;2022-12-29T07:49:30;95290.88;;;5.57;88.47
9676;BME280;4876;42.656;23.292;2022-12-29T07:51:57;95292.06;;;5.29;89.33
9676;BME280;4876;42.656;23.292;2022-12-29T07:54:23;95282.94;;;5.31;88.85
9676;BME280;4876;42.656;23.292;2022-12-29T07:56:50;95286.75;;;5.61;88.29
9676;BME280;4876;42.656;23.292;2022-12-29T07:59:17;95291.25;;;5.81;86.75
9676;BME280;4876;42.656;23.292;2022-12-29T08:01:44;95290.53;;;5.96;85.40
9676;BME280;4876;42.656;23.292;2022-12-29T08:04:11;95282.13;;;5.88;86.10
9676;BME280;4876;42.656;23.292;2022-12-29T08:06:39;95301.06;;;6.16;84.35
9676;BME280;4876;42.656;23.292;2022-12-29T08:09:05;95299.16;;;5.96;83.94
9676;BME280;4876;42.656;23.292;2022-12-29T08:11:32;95298.91;;;5.92;85.18
9676;BME280;4876;42.656;23.292;2022-12-29T08:13:59;95301.84;;;6.22;83.54
9676;BME280;4876;42.656;23.292;2022-12-29T08:16:26;95302.81;;;5.95;84.06
9676;BME280;4876;42.656;23.292;2022-12-29T08:18:52;95305.00;;;6.39;83.72
9676;BME280;4876;42.656;23.292;2022-12-29T08:21:19;95300.56;;;6.44;82.75
9676;BME280;4876;42.656;23.292;2022-12-29T08:23:48;95293.78;;;6.28;81.84
9676;BME280;4876;42.656;23.292;2022-12-29T08:26:15;95300.00;;;6.27;83.05
9676;BME280;4876;42.656;23.292;2022-12-29T08:28:42;95295.84;;;6.26;84.72
9676;BME280;4876;42.656;23.292;2022-12-29T08:31:09;95293.03;;;6.53;82.22
9676;BME280;4876;42.656;23.292;2022-12-29T08:33:35;95298.47;;;6.36;81.73
9676;BME280;4876;42.656;23.292;2022-12-29T08:36:04;95288.06;;;6.67;82.23
9676;BME280;4876;42.656;23.292;2022-12-29T08:38:32;95293.03;;;6.89;80.44
9676;BME280;4876;42.656;23.292;2022-12-29T08:41:00;95294.84;;;6.68;80.53
9676;BME280;4876;42.656;23.292;2022-12-29T08:43:27;95300.34;;;6.61;80.80
9676;BME280;4876;42.656;23.292;2022-12-29T08:45:54;95296.41;;;6.43;81.86
9676;BME280;4876;42.656;23.292;2022-12-29T08:48:21;95298.25;;;6.63;80.95
9676;BME280;4876;42.656;23.292;2022-12-29T08:50:48;95283.63;;;6.47;81.01
9676;BME280;4876;42.656;23.292;2022-12-29T08:53:16;95296.97;;;6.91;80.15
9676;BME280;4876;42.656;23.292;2022-12-29T08:55:44;95281.25;;;6.76;79.90
9676;BME280;4876;42.656;23.292;2022-12-29T08:58:13;95265.84;;;6.69;80.25
9676;BME280;4876;42.656;23.292;2022-12-29T09:00:42;95277.09;;;6.80;79.84
9676;BME280;4876;42.656;23.292;2022-12-29T09:03:08;95287.78;;;6.94;78.85
9676;BME280;4876;42.656;23.292;2022-12-29T09:05:35;95282.28;;;7.00;78.65
9676;BME280;4876;42.656;23.292;2022-12-29T09:08:02;95275.75;;;7.13;79.12
9676;BME280;4876;42.656;23.292;2022-12-29T09:10:30;95268.19;;;6.96;78.37
9676;BME280;4876;42.656;23.292;2022-12-29T09:12:56;95278.13;;;6.94;78.63
9676;BME280;4876;42.656;23.292;2022-12-29T09:15:25;95280.47;;;7.06;78.96
9676;BME280;4876;42.656;23.292;2022-12-29T09:17:51;95271.31;;;6.93;78.91
9676;BME280;4876;42.656;23.292;2022-12-29T09:20:19;95243.63;;;6.52;80.35
9676;BME280;4876;42.656;23.292;2022-12-29T09:22:46;95276.56;;;6.78;80.24
9676;BME280;4876;42.656;23.292;2022-12-29T09:25:13;95270.78;;;7.12;79.92
9676;BME280;4876;42.656;23.292;2022-12-29T09:27:40;95270.78;;;7.12;78.71
9676;BME280;4876;42.656;23.292;2022-12-29T09:30:10;95270.25;;;6.89;78.47
9676;BME280;4876;42.656;23.292;2022-12-29T09:32:38;95265.84;;;6.80;80.38
9676;BME280;4876;42.656;23.292;2022-12-29T09:35:05;95267.66;;;7.15;78.48
9676;BME280;4876;42.656;23.292;2022-12-29T09:37:32;95263.75;;;6.97;78.82
9676;BME280;4876;42.656;23.292;2022-12-29T09:39:59;95254.06;;;6.87;79.61
9676;BME280;4876;42.656;23.292;2022-12-29T09:42:29;95256.41;;;7.09;79.22
9676;BME280;4876;42.656;23.292;2022-12-29T09:45:10;95253.78;;;7.04;79.40
9676;BME280;4876;42.656;23.292;2022-12-29T09:47:42;95251.97;;;7.15;78.35
9676;BME280;4876;42.656;23.292;2022-12-29T09:50:19;95250.91;;;7.06;78.35
9676;BME280;4876;42.656;23.292;2022-12-29T09:52:49;95244.28;;;7.44;77.44
9676;BME280;4876;42.656;23.292;2022-12-29T09:55:20;95246.00;;;7.74;76.00
9676;BME280;4876;42.656;23.292;2022-12-29T09:57:50;95240.00;;;7.68;75.86
9676;BME280;4876;42.656;23.292;2022-12-29T10:00:21;95242.91;;;7.56;76.43
9676;BME280;4876;42.656;23.292;2022-12-29T10:02:53;95237.16;;;7.60;77.01
9676;BME280;4876;42.656;23.292;2022-12-29T10:05:32;95237.28;;;7.19;77.92
9676;BME280;4876;42.656;23.292;2022-12-29T10:08:17;95229.69;;;7.27;78.47
9676;BME280;4876;42.656;23.292;2022-12-29T10:10:53;95228.81;;;7.52;78.01
9676;BME280;4876;42.656;23.292;2022-12-29T10:13:39;95224.25;;;7.78;77.42
9676;BME280;4876;42.656;23.292;2022-12-29T10:16:13;95214.47;;;7.94;76.36
9676;BME280;4876;42.656;23.292;2022-12-29T10:18:54;95220.94;;;8.07;74.95
9676;BME280;4876;42.656;23.292;2022-12-29T10:21:34;95220.56;;;8.24;75.07
9676;BME280;4876;42.656;23.292;2022-12-29T10:24:07;95213.22;;;8.26;74.90
9676;BME280;4876;42.656;23.292;2022-12-29T10:26:40;95205.16;;;8.17;74.94
9676;BME280;4876;42.656;23.292;2022-12-29T10:29:14;95214.81;;;8.27;74.26
9676;BME280;4876;42.656;23.292;2022-12-29T10:31:44;95206.44;;;8.20;74.00
9676;BME280;4876;42.656;23.292;2022-12-29T10:34:19;95204.84;;;8.24;74.09
9676;BME280;4876;42.656;23.292;2022-12-29T10:36:49;95209.50;;;8.32;74.14
9676;BME280;4876;42.656;23.292;2022-12-29T10:39:22;95204.53;;;8.30;74.66
9676;BME280;4876;42.656;23.292;2022-12-29T10:41:55;95202.16;;;8.39;73.63
9676;BME280;4876;42.656;23.292;2022-12-29T10:44:29;95196.25;;;8.57;73.58
9676;BME280;4876;42.656;23.292;2022-12-29T10:46:59;95197.25;;;8.61;73.84
9676;BME280;4876;42.656;23.292;2022-12-29T10:49:32;95192.88;;;8.81;72.69
9676;BME280;4876;42.656;23.292;2022-12-29T10:52:03;95196.31;;;9.05;71.69
9676;BME280;4876;42.656;23.292;2022-12-29T10:54:36;95188.34;;;9.15;71.97
9676;BME280;4876;42.656;23.292;2022-12-29T10:57:09;95172.25;;;9.22;70.39
9676;BME280;4876;42.656;23.292;2022-12-29T10:59:39;95181.19;;;8.97;71.09
9676;BME280;4876;42.656;23.292;2022-12-29T11:02:23;95174.34;;;9.01;72.00
9676;BME280;4876;42.656;23.292;2022-12-29T11:04:59;95169.19;;;9.15;71.47
9676;BME280;4876;42.656;23.292;2022-12-29T11:07:28;95163.97;;;8.86;73.17
9676;BME280;4876;42.656;23.292;2022-12-29T11:10:16;95167.72;;;8.80;73.04
9676;BME280;4876;42.656;23.292;2022-12-29T11:12:54;95164.56;;;8.83;72.64
9676;BME280;4876;42.656;23.292;2022-12-29T11:15:21;95159.03;;;8.55;73.71
9676;BME280;4876;42.656;23.292;2022-12-29T11:17:50;95161.00;;;8.69;73.41
9676;BME280;4876;42.656;23.292;2022-12-29T11:20:37;95164.56;;;8.83;73.40
9676;BME280;4876;42.656;23.292;2022-12-29T11:23:05;95160.75;;;8.70;73.48
9676;BME280;4876;42.656;23.292;2022-12-29T11:26:05;95162.41;;;8.85;73.64
9676;BME280;4876;42.656;23.292;2022-12-29T11:28:34;95159.09;;;9.03;71.73
9676;BME280;4876;42.656;23.292;2022-12-29T11:31:02;95160.09;;;9.07;71.51
9676;BME280;4876;42.656;23.292;2022-12-29T11:33:30;95163.13;;;9.20;71.99
9676;BME280;4876;42.656;23.292;2022-12-29T11:36:02;95142.56;;;9.27;71.78
9676;BME280;4876;42.656;23.292;2022-12-29T11:38:33;95145.91;;;9.32;71.58
9676;BME280;4876;42.656;23.292;2022-12-29T11:41:02;95147.53;;;9.47;70.88
9676;BME280;4876;42.656;23.292;2022-12-29T11:43:31;95130.31;;;9.17;71.07
9676;BME280;4876;42.656;23.292;2022-12-29T11:46:00;95141.16;;;9.53;70.20
9676;BME280;4876;42.656;23.292;2022-12-29T11:48:31;95144.09;;;9.52;69.95
9676;BME280;4876;42.656;23.292;2022-12-29T11:51:01;95139.31;;;9.35;70.90
9676;BME280;4876;42.656;23.292;2022-12-29T11:53:31;95142.44;;;9.56;70.72
9676;BME280;4876;42.656;23.292;2022-12-29T11:56:02;95132.84;;;9.27;70.10
9676;BME280;4876;42.656;23.292;2022-12-29T11:58:33;95136.94;;;9.57;70.04
9676;BME280;4876;42.656;23.292;2022-12-29T12:01:02;95142.44;;;9.75;69.43
9676;BME280;4876;42.656;23.292;2022-12-29T12:03:34;95136.41;;;9.55;69.95
9676;BME280;4876;42.656;23.292;2022-12-29T12:06:03;95138.44;;;9.82;68.88
9676;BME280;4876;42.656;23.292;2022-12-29T12:08:37;95135.78;;;10.01;67.74
9676;BME280;4876;42.656;23.292;2022-12-29T12:11:10;95132.50;;;10.09;66.92
9676;BME280;4876;42.656;23.292;2022-12-29T12:13:41;95131.16;;;9.93;68.05
9676;BME280;4876;42.656;23.292;2022-12-29T12:16:15;95128.78;;;10.10;67.13
9676;BME280;4876;42.656;23.292;2022-12-29T12:18:45;95122.91;;;9.99;67.34
9676;BME280;4876;42.656;23.292;2022-12-29T12:21:20;95110.41;;;10.10;67.09
9676;BME280;4876;42.656;23.292;2022-12-29T12:26:50;95116.00;;;10.22;67.48
9676;BME280;4876;42.656;23.292;2022-12-29T12:29:24;95113.91;;;9.87;68.65
9676;BME280;4876;42.656;23.292;2022-12-29T12:31:56;95113.34;;;9.90;68.05
9676;BME280;4876;42.656;23.292;2022-12-29T12:34:27;95108.34;;;10.07;67.80
9676;BME280;4876;42.656;23.292;2022-12-29T12:37:06;95115.00;;;10.18;67.42
9676;BME280;4876;42.656;23.292;2022-12-29T12:39:43;95116.38;;;10.16;67.12
9676;BME280;4876;42.656;23.292;2022-12-29T12:42:29;95109.63;;;10.10;67.37
9676;BME280;4876;42.656;23.292;2022-12-29T12:45:17;95110.00;;;10.03;67.73
9676;BME280;4876;42.656;23.292;2022-12-29T12:48:00;95112.88;;;10.20;66.97
9676;BME280;4876;42.656;23.292;2022-12-29T12:50:41;95107.94;;;10.00;67.54
9676;BME280;4876;42.656;23.292;2022-12-29T12:53:29;95106.69;;;9.79;68.24
9676;BME280;4876;42.656;23.292;2022-12-29T12:56:27;95103.75;;;9.80;68.55
9676;BME280;4876;42.656;23.292;2022-12-29T12:59:06;95062.69;;;9.70;68.17
9676;BME280;4876;42.656;23.292;2022-12-29T13:01:39;95103.91;;;9.89;68.04
9676;BME280;4876;42.656;23.292;2022-12-29T13:07:18;95105.84;;;10.16;67.42
9676;BME280;4876;42.656;23.292;2022-12-29T13:12:46;95107.09;;;10.18;67.08
9676;BME280;4876;42.656;23.292;2022-12-29T13:15:25;95107.38;;;10.03;68.35
9676;BME280;4876;42.656;23.292;2022-12-29T13:18:03;95101.88;;;9.99;67.78
9676;BME280;4876;42.656;23.292;2022-12-29T13:20:37;95113.22;;;10.00;68.14
9676;BME280;4876;42.656;23.292;2022-12-29T13:23:12;95104.81;;;9.98;68.00
9676;BME280;4876;42.656;23.292;2022-12-29T13:25:48;95097.72;;;9.98;67.47
9676;BME280;4876;42.656;23.292;2022-12-29T13:28:23;95106.59;;;10.03;67.63
9676;BME280;4876;42.656;23.292;2022-12-29T13:30:57;95103.91;;;9.89;68.06
9676;BME280;4876;42.656;23.292;2022-12-29T13:33:35;95111.28;;;9.87;68.33
9676;BME280;4876;42.656;23.292;2022-12-29T13:36:13;95117.75;;;9.94;68.56
9676;BME280;4876;42.656;23.292;2022-12-29T13:38:47;95113.06;;;9.91;69.36
9676;BME280;4876;42.656;23.292;2022-12-29T13:41:19;95114.53;;;9.97;69.47
9676;BME280;4876;42.656;23.292;2022-12-29T13:43:48;95115.03;;;9.81;70.12
9676;BME280;4876;42.656;23.292;2022-12-29T13:46:20;95109.94;;;9.70;70.87
9676;BME280;4876;42.656;23.292;2022-12-29T13:48:51;95116.81;;;9.85;69.85
9676;BME280;4876;42.656;23.292;2022-12-29T13:51:20;95113.56;;;9.75;71.63